createdAt,value
2023-03-06T00:00:27.038Z,18.80
2023-03-06T00:02:53.563Z,13.70
2023-03-06T00:05:20.097Z,15.57
2023-03-06T00:07:46.690Z,14.75
2023-03-06T00:10:18.995Z,18.60
2023-03-06T00:12:45.496Z,20.10
2023-03-06T00:15:12.935Z,15.00
2023-03-06T00:17:40.025Z,16.75
2023-03-06T00:20:07.695Z,15.13
2023-03-06T00:22:34.331Z,16.85
2023-03-06T00:25:00.644Z,14.90
2023-03-06T00:27:27.012Z,13.85
2023-03-06T00:29:57.875Z,16.80
2023-03-06T00:32:24.676Z,17.00
2023-03-06T00:34:54.446Z,13.82
2023-03-06T00:37:23.506Z,15.70
2023-03-06T00:39:50.469Z,16.15
2023-03-06T00:42:17.711Z,15.10
2023-03-06T00:44:44.523Z,14.73
2023-03-06T00:47:11.171Z,17.25
2023-03-06T00:49:37.479Z,15.30
2023-03-06T00:52:04.220Z,15.63
2023-03-06T00:54:30.670Z,17.50
2023-03-06T00:56:56.942Z,16.80
2023-03-06T00:59:23.334Z,16.30
2023-03-06T01:01:49.626Z,16.85
2023-03-06T01:04:15.914Z,17.33
2023-03-06T01:06:42.320Z,17.92
2023-03-06T01:09:08.623Z,14.60
2023-03-06T01:11:35.034Z,13.57
2023-03-06T01:14:01.613Z,15.02
2023-03-06T01:16:27.976Z,14.07
2023-03-06T01:18:54.393Z,15.48
2023-03-06T01:21:20.688Z,13.32
2023-03-06T01:23:47.188Z,15.93
2023-03-06T01:26:14.659Z,20.52
2023-03-06T01:28:41.045Z,12.10
2023-03-06T01:31:09.130Z,12.48
2023-03-06T01:33:36.265Z,14.93
2023-03-06T01:36:07.919Z,19.15
2023-03-06T01:38:35.736Z,17.77
2023-03-06T01:43:33.051Z,13.20
2023-03-06T01:46:22.612Z,14.10
2023-03-06T01:48:52.090Z,14.45
2023-03-06T01:51:18.549Z,15.13
2023-03-06T01:53:46.064Z,16.42
2023-03-06T01:56:14.020Z,13.52
2023-03-06T01:58:42.360Z,13.38
2023-03-06T02:01:10.557Z,18.08
2023-03-06T02:03:37.697Z,15.27
2023-03-06T02:06:04.102Z,18.40
2023-03-06T02:08:31.399Z,17.27
2023-03-06T02:11:05.769Z,13.55
2023-03-06T02:13:32.333Z,14.00
2023-03-06T02:15:58.979Z,14.68
2023-03-06T02:18:25.666Z,13.68
2023-03-06T02:20:55.098Z,15.68
2023-03-06T02:23:38.613Z,17.25
2023-03-06T02:26:06.852Z,14.25
2023-03-06T02:28:33.240Z,15.80
2023-03-06T02:30:59.704Z,15.05
2023-03-06T02:33:28.045Z,14.10
2023-03-06T02:36:06.701Z,12.38
2023-03-06T02:38:39.130Z,14.57
2023-03-06T02:41:08.705Z,12.90
2023-03-06T02:43:39.533Z,16.65
2023-03-06T02:46:06.644Z,14.50
2023-03-06T02:48:33.045Z,14.93
2023-03-06T02:50:59.485Z,15.48
2023-03-06T02:53:25.918Z,13.60
2023-03-06T02:55:52.212Z,13.85
2023-03-06T02:58:18.944Z,14.32
2023-03-06T03:00:45.825Z,15.80
2023-03-06T03:03:12.655Z,15.93
2023-03-06T03:05:38.967Z,14.38
2023-03-06T03:08:05.668Z,14.38
2023-03-06T03:10:32.133Z,17.02
2023-03-06T03:12:58.898Z,13.10
2023-03-06T03:15:25.542Z,15.57
2023-03-06T03:17:51.827Z,12.80
2023-03-06T03:20:19.933Z,14.55
2023-03-06T03:22:51.018Z,15.75
2023-03-06T03:25:18.246Z,14.10
2023-03-06T03:27:44.559Z,15.50
2023-03-06T03:30:11.663Z,13.52
2023-03-06T03:32:38.078Z,15.35
2023-03-06T03:35:06.039Z,14.60
2023-03-06T03:37:32.371Z,16.15
2023-03-06T03:39:59.178Z,13.90
2023-03-06T03:42:25.461Z,14.13
2023-03-06T03:44:51.829Z,15.60
2023-03-06T03:47:18.125Z,15.63
2023-03-06T03:49:44.595Z,13.68
2023-03-06T03:52:10.970Z,14.80
2023-03-06T03:54:37.285Z,15.48
2023-03-06T03:57:03.706Z,13.85
2023-03-06T03:59:30.075Z,17.10
2023-03-06T04:01:56.506Z,16.67
2023-03-06T04:04:22.920Z,15.25
2023-03-06T04:06:49.346Z,19.65
2023-03-06T04:09:15.649Z,16.33
2023-03-06T04:11:41.971Z,18.05
2023-03-06T04:14:08.396Z,16.40
2023-03-06T04:16:34.732Z,13.65
2023-03-06T04:19:01.048Z,20.10
2023-03-06T04:21:29.003Z,15.02
2023-03-06T04:23:55.334Z,15.55
2023-03-06T04:26:21.704Z,14.93
2023-03-06T04:28:47.998Z,16.50
2023-03-06T04:31:14.451Z,18.05
2023-03-06T04:33:40.880Z,15.20
2023-03-06T04:36:07.506Z,22.15
2023-03-06T04:38:33.852Z,16.95
2023-03-06T04:41:00.302Z,14.05
2023-03-06T04:43:26.652Z,16.42
2023-03-06T04:45:53.028Z,17.65
2023-03-06T04:48:19.397Z,15.93
2023-03-06T04:50:46.085Z,16.73
2023-03-06T04:53:12.555Z,18.80
2023-03-06T04:55:38.857Z,18.13
2023-03-06T04:58:05.278Z,20.70
2023-03-06T05:00:31.845Z,16.70
2023-03-06T05:03:00.143Z,17.17
2023-03-06T05:05:27.360Z,18.67
2023-03-06T05:07:54.329Z,17.10
2023-03-06T05:10:21.033Z,16.08
2023-03-06T05:12:47.463Z,21.95
2023-03-06T05:15:14.537Z,17.30
2023-03-06T05:17:41.253Z,17.73
2023-03-06T05:20:11.423Z,20.55
2023-03-06T05:22:37.753Z,19.83
2023-03-06T05:25:04.538Z,21.98
2023-03-06T05:27:31.166Z,22.85
2023-03-06T05:29:57.843Z,18.02
2023-03-06T05:32:24.199Z,15.77
2023-03-06T05:34:50.848Z,22.17
2023-03-06T05:37:17.268Z,18.02
2023-03-06T05:39:43.818Z,16.75
2023-03-06T05:42:10.132Z,19.08
2023-03-06T05:44:36.683Z,16.90
2023-03-06T05:47:03.578Z,18.25
2023-03-06T05:49:35.350Z,20.13
2023-03-06T05:52:03.736Z,17.85
2023-03-06T05:54:31.497Z,19.73
2023-03-06T05:56:57.802Z,19.92
2023-03-06T05:59:25.090Z,19.27
2023-03-06T06:01:51.489Z,15.65
2023-03-06T06:04:17.798Z,20.83
2023-03-06T06:06:44.194Z,18.05
2023-03-06T06:09:12.315Z,23.95
2023-03-06T06:11:40.094Z,17.88
2023-03-06T06:14:06.496Z,18.13
2023-03-06T06:16:32.850Z,18.52
2023-03-06T06:18:59.275Z,18.02
2023-03-06T06:21:25.709Z,19.95
2023-03-06T06:23:51.988Z,18.35
2023-03-06T06:26:18.287Z,21.05
2023-03-06T06:28:44.594Z,19.00
2023-03-06T06:31:12.642Z,22.17
2023-03-06T06:33:40.340Z,17.33
2023-03-06T06:36:15.736Z,17.25
2023-03-06T06:38:42.136Z,18.88
2023-03-06T06:43:55.759Z,21.23
2023-03-06T06:47:05.815Z,21.42
2023-03-06T06:49:09.641Z,20.48
2023-03-06T06:51:35.988Z,24.20
2023-03-06T06:54:02.276Z,23.33
2023-03-06T06:56:28.750Z,84.63
2023-03-06T06:59:01.350Z,68.72
2023-03-06T07:01:36.823Z,52.63
2023-03-06T07:04:03.186Z,31.55
2023-03-06T07:06:29.576Z,27.23
2023-03-06T07:08:56.664Z,25.70
2023-03-06T07:11:23.930Z,24.25
2023-03-06T07:13:50.255Z,22.33
2023-03-06T07:16:16.804Z,24.08
2023-03-06T07:18:43.772Z,20.88
2023-03-06T07:21:10.113Z,20.00
2023-03-06T07:23:36.420Z,22.50
2023-03-06T07:26:02.732Z,18.58
2023-03-06T07:28:29.042Z,20.42
2023-03-06T07:30:55.957Z,18.58
2023-03-06T07:33:22.433Z,22.73
2023-03-06T07:35:48.810Z,22.83
2023-03-06T07:38:15.198Z,23.35
2023-03-06T07:40:41.672Z,25.10
2023-03-06T07:43:18.761Z,18.95
2023-03-06T07:45:45.946Z,19.02
2023-03-06T07:48:13.609Z,17.45
2023-03-06T07:50:40.206Z,18.00
2023-03-06T07:53:06.508Z,17.45
2023-03-06T07:55:32.829Z,19.58
2023-03-06T07:57:59.160Z,18.35
2023-03-06T08:00:25.569Z,16.70
2023-03-06T08:02:51.957Z,18.55
2023-03-06T08:05:18.644Z,17.00
2023-03-06T08:07:45.532Z,19.70
2023-03-06T08:10:15.075Z,28.13
2023-03-06T08:12:41.649Z,35.67
2023-03-06T08:15:10.138Z,19.73
2023-03-06T08:17:36.779Z,17.00
2023-03-06T08:20:03.814Z,19.52
2023-03-06T08:22:30.112Z,16.52
2023-03-06T08:24:57.249Z,18.38
2023-03-06T08:27:23.735Z,18.55
2023-03-06T08:29:50.054Z,15.77
2023-03-06T08:32:16.418Z,17.58
2023-03-06T08:34:42.770Z,14.90
2023-03-06T08:37:09.103Z,16.25
2023-03-06T08:39:35.397Z,15.63
2023-03-06T08:42:01.739Z,15.68
2023-03-06T08:44:28.030Z,14.18
2023-03-06T08:46:54.327Z,16.88
2023-03-06T08:49:20.864Z,14.65
2023-03-06T08:51:47.270Z,16.75
2023-03-06T08:54:13.765Z,16.58
2023-03-06T08:56:40.278Z,16.98
2023-03-06T08:59:06.837Z,16.17
2023-03-06T09:01:36.205Z,17.50
2023-03-06T09:04:04.922Z,16.50
2023-03-06T09:06:34.290Z,15.07
2023-03-06T09:09:00.757Z,16.15
2023-03-06T09:11:28.067Z,19.02
2023-03-06T09:13:54.790Z,17.95
2023-03-06T09:16:21.714Z,15.30
2023-03-06T09:18:48.088Z,17.50
2023-03-06T09:21:14.456Z,17.70
2023-03-06T09:23:40.822Z,17.85
2023-03-06T09:26:07.986Z,11.10
2023-03-06T09:28:38.928Z,15.63
2023-03-06T09:31:15.157Z,22.33
2023-03-06T09:33:41.917Z,14.40
2023-03-06T09:36:14.141Z,14.77
2023-03-06T09:38:40.445Z,18.73
2023-03-06T09:41:22.045Z,14.80
2023-03-06T09:43:51.385Z,16.67
2023-03-06T09:46:42.622Z,15.82
2023-03-06T09:49:42.492Z,12.68
2023-03-06T09:52:27.475Z,16.05
2023-03-06T09:55:00.842Z,13.13
2023-03-06T09:57:38.101Z,16.17
2023-03-06T10:00:11.766Z,15.35
2023-03-06T10:05:26.081Z,13.75
2023-03-06T10:08:01.771Z,14.95
2023-03-06T10:10:40.717Z,14.82
2023-03-06T10:13:20.660Z,12.63
2023-03-06T10:15:48.021Z,15.07
2023-03-06T10:18:14.520Z,13.52
2023-03-06T10:20:45.702Z,13.23
2023-03-06T10:23:18.172Z,14.20
2023-03-06T10:25:53.409Z,17.00
2023-03-06T10:28:44.113Z,12.40
2023-03-06T10:31:20.187Z,10.63
2023-03-06T10:34:14.221Z,15.43
2023-03-06T10:36:40.532Z,14.52
2023-03-06T10:39:15.296Z,12.93
2023-03-06T10:41:41.590Z,15.07
2023-03-06T10:44:07.858Z,11.70
2023-03-06T10:46:37.041Z,14.25
2023-03-06T10:49:25.242Z,14.82
2023-03-06T10:52:19.905Z,15.30
2023-03-06T10:54:46.585Z,13.57
2023-03-06T10:57:30.609Z,14.48
2023-03-06T11:00:02.606Z,14.50
2023-03-06T11:02:32.287Z,12.02
2023-03-06T11:05:01.039Z,12.32
2023-03-06T11:07:35.186Z,13.65
2023-03-06T11:10:16.014Z,15.65
2023-03-06T11:12:43.278Z,12.63
2023-03-06T11:15:15.343Z,13.93
2023-03-06T11:17:57.512Z,13.13
2023-03-06T11:20:52.100Z,12.85
2023-03-06T11:23:36.561Z,13.75
2023-03-06T11:26:18.124Z,12.05
2023-03-06T11:29:17.723Z,12.35
2023-03-06T11:31:51.432Z,11.88
2023-03-06T11:37:07.827Z,11.77
2023-03-06T11:39:43.089Z,11.27
2023-03-06T11:43:01.240Z,12.45
2023-03-06T11:45:34.332Z,11.25
2023-03-06T11:48:15.708Z,11.93
2023-03-06T11:50:48.062Z,12.90
2023-03-06T11:53:32.179Z,13.90
2023-03-06T11:56:20.211Z,19.13
2023-03-06T11:59:14.440Z,14.40
2023-03-06T12:02:09.156Z,13.60
2023-03-06T12:04:44.885Z,12.25
2023-03-06T12:07:35.644Z,10.55
2023-03-06T12:10:19.316Z,10.98
2023-03-06T12:13:05.750Z,12.95
2023-03-06T12:16:15.502Z,8.77
2023-03-06T12:18:52.739Z,11.75
2023-03-06T12:21:37.777Z,11.45
2023-03-06T12:24:30.986Z,10.45
2023-03-06T12:27:17.153Z,9.15
2023-03-06T12:29:58.393Z,10.68
2023-03-06T12:32:43.509Z,8.82
2023-03-06T12:35:36.928Z,12.93
2023-03-06T12:38:18.938Z,11.15
2023-03-06T12:41:04.282Z,10.15
2023-03-06T12:43:33.656Z,10.23
2023-03-06T12:46:09.414Z,10.52
2023-03-06T12:48:37.483Z,10.40
2023-03-06T12:51:07.491Z,12.10
2023-03-06T12:53:35.575Z,11.98
2023-03-06T12:56:03.106Z,10.10
2023-03-06T12:58:29.375Z,11.25
2023-03-06T13:01:04.145Z,11.07
2023-03-06T13:04:02.890Z,10.35
2023-03-06T13:06:53.730Z,10.38
2023-03-06T13:09:48.982Z,10.73
2023-03-06T13:12:47.044Z,13.77
2023-03-06T13:17:59.080Z,11.82
2023-03-06T13:20:34.651Z,10.57
2023-03-06T13:23:28.952Z,12.18
2023-03-06T13:25:56.287Z,10.75
2023-03-06T13:28:38.852Z,8.15
2023-03-06T13:31:07.372Z,9.43
2023-03-06T13:33:36.890Z,11.95
2023-03-06T13:36:32.086Z,10.70
2023-03-06T13:39:01.953Z,11.32
2023-03-06T13:41:31.277Z,9.82
2023-03-06T13:43:59.708Z,8.85
2023-03-06T13:46:32.091Z,8.82
2023-03-06T13:49:07.459Z,9.43
2023-03-06T13:52:02.805Z,9.82
2023-03-06T13:54:35.833Z,8.85
2023-03-06T13:57:08.124Z,10.88
2023-03-06T14:00:08.926Z,8.40
2023-03-06T14:02:54.479Z,8.80
2023-03-06T14:05:21.737Z,10.32
2023-03-06T14:08:02.482Z,8.93
2023-03-06T14:10:33.286Z,12.43
2023-03-06T14:13:15.516Z,11.02
2023-03-06T14:15:48.562Z,9.90
2023-03-06T14:18:19.987Z,11.27
2023-03-06T14:20:51.278Z,13.10
2023-03-06T14:23:37.470Z,10.15
2023-03-06T14:26:16.466Z,11.63
2023-03-06T14:28:52.121Z,9.52
2023-03-06T14:31:21.108Z,8.45
2023-03-06T14:33:55.636Z,9.93
2023-03-06T14:36:26.016Z,11.10
2023-03-06T14:38:59.295Z,10.10
2023-03-06T14:41:27.023Z,12.75
2023-03-06T14:44:23.760Z,13.25
2023-03-06T14:46:55.391Z,13.15
2023-03-06T14:49:24.020Z,13.52
2023-03-06T14:51:53.041Z,12.48
2023-03-06T14:54:27.913Z,12.77
2023-03-06T14:57:01.265Z,14.05
2023-03-06T14:59:30.512Z,9.95
2023-03-06T15:02:01.068Z,11.93
2023-03-06T15:04:46.095Z,13.50
2023-03-06T15:07:25.504Z,13.30
2023-03-06T15:09:54.229Z,14.65
2023-03-06T15:12:20.505Z,12.60
2023-03-06T15:14:49.298Z,12.82
2023-03-06T15:17:18.661Z,13.05
2023-03-06T15:19:47.155Z,11.35
2023-03-06T15:22:26.864Z,14.07
2023-03-06T15:24:54.198Z,11.38
2023-03-06T15:27:29.634Z,15.82
2023-03-06T15:30:22.706Z,11.30
2023-03-06T15:32:49.323Z,12.45
2023-03-06T15:35:24.429Z,9.68
2023-03-06T15:37:51.385Z,12.02
2023-03-06T15:40:23.224Z,12.32
2023-03-06T15:42:49.900Z,13.05
2023-03-06T15:45:21.896Z,11.40
2023-03-06T15:47:50.530Z,11.93
2023-03-06T15:50:28.186Z,10.35
2023-03-06T15:52:54.800Z,11.75
2023-03-06T15:55:24.712Z,14.45
2023-03-06T15:57:56.886Z,15.70
2023-03-06T16:00:29.424Z,17.73
2023-03-06T16:02:57.084Z,11.77
2023-03-06T16:07:50.807Z,13.60
2023-03-06T16:10:19.562Z,18.25
2023-03-06T16:12:49.857Z,15.65
2023-03-06T16:15:47.319Z,16.90
2023-03-06T16:18:13.720Z,13.98
2023-03-06T16:20:40.093Z,15.32
2023-03-06T16:23:06.463Z,17.50
2023-03-06T16:25:32.815Z,16.70
2023-03-06T16:27:59.228Z,16.75
2023-03-06T16:30:27.969Z,12.52
2023-03-06T16:32:54.557Z,16.73
2023-03-06T16:35:21.280Z,16.48
2023-03-06T16:37:47.833Z,13.35
2023-03-06T16:40:16.989Z,16.75
2023-03-06T16:42:43.348Z,16.05
2023-03-06T16:45:10.485Z,15.93
2023-03-06T16:47:36.908Z,14.30
2023-03-06T16:50:04.175Z,17.02
2023-03-06T16:52:30.527Z,17.88
2023-03-06T16:54:56.926Z,17.65
2023-03-06T16:57:23.229Z,18.65
2023-03-06T16:59:49.566Z,16.85
2023-03-06T17:02:15.882Z,18.95
2023-03-06T17:04:42.233Z,19.98
2023-03-06T17:07:08.530Z,16.77
2023-03-06T17:09:34.841Z,15.48
2023-03-06T17:12:01.211Z,16.50
2023-03-06T17:14:27.626Z,18.45
2023-03-06T17:16:53.920Z,16.55
2023-03-06T17:19:20.261Z,18.17
2023-03-06T17:21:46.569Z,17.45
2023-03-06T17:24:12.877Z,16.35
2023-03-06T17:26:39.241Z,17.05
2023-03-06T17:29:07.111Z,15.20
2023-03-06T17:31:33.600Z,16.45
2023-03-06T17:33:59.981Z,17.02
2023-03-06T17:36:27.433Z,17.10
2023-03-06T17:38:58.318Z,18.80
2023-03-06T17:41:24.915Z,19.75
2023-03-06T17:43:52.396Z,16.25
2023-03-06T17:46:19.028Z,14.07
2023-03-06T17:48:45.762Z,18.95
2023-03-06T17:51:12.583Z,14.48
2023-03-06T17:53:39.885Z,19.60
2023-03-06T17:56:12.623Z,17.65
2023-03-06T18:01:18.069Z,17.77
2023-03-06T18:03:46.361Z,15.20
2023-03-06T18:06:12.903Z,15.38
2023-03-06T18:08:39.593Z,17.27
2023-03-06T18:11:07.592Z,15.40
2023-03-06T18:13:37.037Z,17.20
2023-03-06T18:16:04.303Z,19.83
2023-03-06T18:18:31.049Z,14.23
2023-03-06T18:20:57.428Z,15.52
2023-03-06T18:23:23.719Z,15.82
2023-03-06T18:25:50.339Z,13.45
2023-03-06T18:28:16.633Z,16.58
2023-03-06T18:30:42.935Z,16.85
2023-03-06T18:33:09.684Z,16.90
2023-03-06T18:35:36.546Z,16.60
2023-03-06T18:38:02.973Z,16.08
2023-03-06T18:40:29.287Z,17.35
2023-03-06T18:42:55.594Z,15.77
2023-03-06T18:45:21.942Z,15.45
2023-03-06T18:47:48.244Z,15.68
2023-03-06T18:50:14.703Z,14.35
2023-03-06T18:52:41.002Z,16.70
2023-03-06T18:55:07.583Z,19.65
2023-03-06T18:57:33.981Z,14.00
2023-03-06T19:00:00.664Z,15.23
2023-03-06T19:02:27.081Z,17.85
2023-03-06T19:04:53.435Z,15.63
2023-03-06T19:07:19.786Z,17.33
2023-03-06T19:09:48.496Z,15.90
2023-03-06T19:12:14.895Z,17.95
2023-03-06T19:14:41.235Z,17.33
2023-03-06T19:17:07.590Z,19.83
2023-03-06T19:19:34.000Z,16.40
2023-03-06T19:22:00.479Z,15.57
2023-03-06T19:24:26.999Z,16.08
2023-03-06T19:26:53.515Z,18.10
2023-03-06T19:29:19.996Z,16.98
2023-03-06T19:31:46.569Z,18.08
2023-03-06T19:34:12.906Z,19.73
2023-03-06T19:36:39.183Z,20.13
2023-03-06T19:39:06.751Z,19.02
2023-03-06T19:41:33.981Z,17.17
2023-03-06T19:44:01.267Z,17.15
2023-03-06T19:46:27.995Z,20.23
2023-03-06T19:48:56.066Z,21.20
2023-03-06T19:51:22.814Z,21.45
2023-03-06T19:53:49.152Z,18.63
2023-03-06T19:56:21.225Z,18.38
2023-03-06T19:58:47.723Z,19.60
2023-03-06T20:01:17.149Z,21.25
2023-03-06T20:03:44.132Z,21.90
2023-03-06T20:06:13.817Z,20.48
2023-03-06T20:08:40.144Z,21.02
2023-03-06T20:11:06.560Z,25.77
2023-03-06T20:13:32.904Z,20.90
2023-03-06T20:16:02.719Z,21.13
2023-03-06T20:18:29.065Z,26.45
2023-03-06T20:21:04.009Z,19.35
2023-03-06T20:23:31.553Z,19.80
2023-03-06T20:26:02.634Z,21.35
2023-03-06T20:28:28.992Z,33.63
2023-03-06T20:30:55.308Z,22.33
2023-03-06T20:33:21.739Z,22.73
2023-03-06T20:35:48.064Z,26.15
2023-03-06T20:38:14.489Z,18.85
2023-03-06T20:40:42.173Z,18.10
2023-03-06T20:43:08.706Z,18.67
2023-03-06T20:45:35.129Z,17.23
2023-03-06T20:48:01.549Z,18.05
2023-03-06T20:50:27.904Z,17.88
2023-03-06T20:52:55.677Z,18.33
2023-03-06T20:57:49.912Z,20.80
2023-03-06T21:00:17.808Z,19.45
2023-03-06T21:02:44.722Z,23.48
2023-03-06T21:05:11.102Z,19.13
2023-03-06T21:07:37.587Z,20.77
2023-03-06T21:10:04.432Z,16.38
2023-03-06T21:12:30.749Z,16.75
2023-03-06T21:14:57.056Z,17.02
2023-03-06T21:17:23.423Z,14.90
2023-03-06T21:19:49.731Z,19.15
2023-03-06T21:22:16.169Z,16.30
2023-03-06T21:24:42.480Z,16.55
2023-03-06T21:27:08.786Z,15.00
2023-03-06T21:29:35.266Z,13.30
2023-03-06T21:32:01.623Z,16.17
2023-03-06T21:34:27.970Z,14.48
2023-03-06T21:36:54.310Z,16.95
2023-03-06T21:39:20.615Z,15.68
2023-03-06T21:41:46.943Z,16.55
2023-03-06T21:44:13.274Z,14.18
2023-03-06T21:46:39.640Z,14.98
2023-03-06T21:49:05.980Z,14.95
2023-03-06T21:51:32.423Z,16.65
2023-03-06T21:53:58.726Z,16.38
2023-03-06T21:56:25.518Z,14.48
2023-03-06T21:58:52.004Z,15.77
2023-03-06T22:01:22.506Z,14.88
2023-03-06T22:03:48.900Z,16.02
2023-03-06T22:06:21.504Z,17.20
2023-03-06T22:08:47.948Z,16.52
2023-03-06T22:11:16.983Z,14.32
2023-03-06T22:13:44.423Z,16.20
2023-03-06T22:16:11.806Z,17.75
2023-03-06T22:18:38.217Z,17.35
2023-03-06T22:21:09.052Z,12.38
2023-03-06T22:23:35.691Z,14.02
2023-03-06T22:26:03.777Z,15.48
2023-03-06T22:28:30.092Z,17.35
2023-03-06T22:31:02.893Z,14.77
2023-03-06T22:33:29.194Z,15.20
2023-03-06T22:35:59.888Z,16.45
2023-03-06T22:38:26.300Z,14.18
2023-03-06T22:40:56.474Z,17.55
2023-03-06T22:43:22.851Z,14.38
2023-03-06T22:45:49.203Z,14.18
2023-03-06T22:48:15.538Z,15.98
2023-03-06T22:50:41.868Z,14.13
2023-03-06T22:53:08.164Z,15.02
2023-03-06T22:55:35.330Z,16.48
2023-03-06T22:58:02.008Z,15.43
2023-03-06T23:00:28.493Z,16.58
2023-03-06T23:02:54.883Z,15.15
2023-03-06T23:05:21.621Z,15.50
2023-03-06T23:07:48.220Z,14.18
2023-03-06T23:10:14.495Z,14.20
2023-03-06T23:12:40.919Z,16.25
2023-03-06T23:15:07.797Z,17.48
2023-03-06T23:17:34.414Z,13.40
2023-03-06T23:20:00.730Z,17.15
2023-03-06T23:22:27.022Z,15.55
2023-03-06T23:24:53.395Z,13.95
2023-03-06T23:27:19.675Z,15.32
2023-03-06T23:29:49.674Z,14.63
2023-03-06T23:32:16.029Z,19.95
2023-03-06T23:34:42.574Z,15.38
2023-03-06T23:37:08.901Z,17.77
2023-03-06T23:39:35.333Z,14.30
2023-03-06T23:42:01.807Z,16.20
2023-03-06T23:44:28.219Z,15.35
2023-03-06T23:46:54.504Z,20.60
2023-03-06T23:49:21.945Z,17.38
2023-03-06T23:51:48.342Z,15.35
2023-03-06T23:54:14.771Z,15.90
2023-03-06T23:56:41.075Z,16.48
2023-03-06T23:59:07.499Z,17.20
